createdAt,value
2023-03-08T00:02:13.515Z,99147.10
2023-03-08T00:06:07.460Z,99145.73
2023-03-08T00:10:00.019Z,99140.52
2023-03-08T00:13:27.316Z,99143.41
2023-03-08T00:16:56.722Z,99149.17
2023-03-08T00:21:20.201Z,99155.85
2023-03-08T00:25:11.292Z,99154.33
2023-03-08T00:29:17.198Z,99153.45
2023-03-08T00:33:08.535Z,99154.88
2023-03-08T00:37:16.419Z,99153.95
2023-03-08T00:41:04.263Z,99148.67
2023-03-08T00:45:00.376Z,99155.46
2023-03-08T00:48:53.487Z,99163.48
2023-03-08T00:52:51.140Z,99166.95
2023-03-08T00:56:39.271Z,99172.62
2023-03-08T01:00:27.773Z,99173.68
2023-03-08T01:08:36.526Z,99183.73
2023-03-08T01:12:25.744Z,99187.46
2023-03-08T01:16:15.844Z,99180.99
2023-03-08T01:20:03.855Z,99184.40
2023-03-08T01:23:52.592Z,99185.80
2023-03-08T01:27:36.770Z,99184.54
2023-03-08T01:31:37.746Z,99183.41
2023-03-08T01:35:04.613Z,99189.35
2023-03-08T01:38:52.079Z,99190.34
2023-03-08T01:42:39.748Z,99191.98
2023-03-08T01:47:03.591Z,99189.13
2023-03-08T01:51:15.542Z,99194.63
2023-03-08T01:55:38.806Z,99195.69
2023-03-08T01:59:38.789Z,99199.11
2023-03-08T02:03:41.359Z,99204.64
2023-03-08T02:07:48.775Z,99206.42
2023-03-08T02:11:58.175Z,99201.42
2023-03-08T02:16:06.119Z,99202.20
2023-03-08T02:19:58.961Z,99199.50
2023-03-08T02:24:07.308Z,99205.68
2023-03-08T02:28:34.743Z,99205.05
2023-03-08T02:32:42.663Z,99210.50
2023-03-08T02:36:50.519Z,99215.30
2023-03-08T02:41:18.084Z,99220.37
2023-03-08T02:45:26.507Z,99226.02
2023-03-08T02:49:34.976Z,99233.76
2023-03-08T02:53:43.345Z,99237.80
2023-03-08T02:57:51.200Z,99236.59
2023-03-08T03:01:39.025Z,99241.33
2023-03-08T03:05:46.996Z,99248.64
2023-03-08T03:10:14.680Z,99250.59
2023-03-08T03:14:25.658Z,99251.86
2023-03-08T03:18:14.904Z,99261.02
2023-03-08T03:22:22.416Z,99262.34
2023-03-08T03:26:49.912Z,99276.29
2023-03-08T03:30:58.303Z,99279.18
2023-03-08T03:34:46.791Z,99285.34
2023-03-08T03:39:11.136Z,99286.47
2023-03-08T03:43:32.848Z,99293.11
2023-03-08T03:47:27.429Z,99296.83
2023-03-08T03:51:11.692Z,99303.11
2023-03-08T03:55:31.547Z,99304.69
2023-03-08T03:59:19.426Z,99308.75
2023-03-08T04:03:22.871Z,99316.27
2023-03-08T04:07:18.767Z,99323.65
2023-03-08T04:10:56.889Z,99322.02
2023-03-08T04:15:03.751Z,99325.76
2023-03-08T04:19:15.532Z,99326.80
2023-03-08T04:22:58.984Z,99324.71
2023-03-08T04:26:46.432Z,99323.73
2023-03-08T04:30:51.047Z,99325.99
2023-03-08T04:35:19.417Z,99327.08
2023-03-08T04:39:48.312Z,99334.22
2023-03-08T04:44:16.468Z,99334.77
2023-03-08T04:48:45.183Z,99337.40
2023-03-08T04:52:53.288Z,99338.30
2023-03-08T04:57:09.965Z,99340.46
2023-03-08T05:01:38.248Z,99346.73
2023-03-08T05:06:12.137Z,99356.11
2023-03-08T05:10:42.896Z,99358.70
2023-03-08T05:15:10.520Z,99361.83
2023-03-08T05:19:39.583Z,99371.42
2023-03-08T05:23:51.301Z,99374.82
2023-03-08T05:28:19.047Z,99382.77
2023-03-08T05:32:46.730Z,99387.91
2023-03-08T05:37:14.424Z,99386.14
2023-03-08T05:41:42.415Z,99388.84
2023-03-08T05:46:11.508Z,99393.61
2023-03-08T05:50:42.342Z,99396.85
2023-03-08T05:55:20.327Z,99405.28
2023-03-08T05:59:51.047Z,99403.85
2023-03-08T06:04:11.730Z,99405.38
2023-03-08T06:08:40.047Z,99411.67
2023-03-08T06:13:20.450Z,99411.23
2023-03-08T06:17:48.001Z,99419.05
2023-03-08T06:22:15.565Z,99419.55
2023-03-08T06:26:42.178Z,99425.38
2023-03-08T06:30:52.177Z,99430.80
2023-03-08T06:35:20.647Z,99437.60
2023-03-08T06:39:51.534Z,99449.16
2023-03-08T06:44:19.689Z,99454.27
2023-03-08T06:48:48.271Z,99458.73
2023-03-08T06:53:16.738Z,99464.30
2023-03-08T06:57:44.482Z,99464.94
2023-03-08T07:02:12.246Z,99465.83
2023-03-08T07:06:39.888Z,99471.02
2023-03-08T07:11:07.875Z,99472.66
2023-03-08T07:15:35.593Z,99476.91
2023-03-08T07:20:03.310Z,99475.70
2023-03-08T07:24:31.017Z,99480.55
2023-03-08T07:28:53.046Z,99474.58
2023-03-08T07:33:21.984Z,99475.90
2023-03-08T07:37:52.207Z,99473.59
2023-03-08T07:42:20.188Z,99477.65
2023-03-08T07:46:52.148Z,99482.29
2023-03-08T07:51:20.582Z,99481.09
2023-03-08T07:55:49.074Z,99483.50
2023-03-08T08:00:17.188Z,99479.48
2023-03-08T08:04:45.063Z,99483.08
2023-03-08T08:09:15.006Z,99473.64
2023-03-08T08:13:43.495Z,99482.06
2023-03-08T08:18:12.995Z,99473.29
2023-03-08T08:22:44.879Z,99466.98
2023-03-08T08:27:15.488Z,99472.51
2023-03-08T08:31:48.424Z,99468.20
2023-03-08T08:36:17.687Z,99472.52
2023-03-08T08:40:49.084Z,99478.14
2023-03-08T08:45:17.128Z,99479.27
2023-03-08T08:49:49.013Z,99485.23
2023-03-08T08:54:17.037Z,99489.05
2023-03-08T08:58:43.709Z,99487.73
2023-03-08T09:02:46.389Z,99488.92
2023-03-08T09:07:15.289Z,99485.35
2023-03-08T09:11:23.848Z,99478.97
2023-03-08T09:15:51.670Z,99480.74
2023-03-08T09:20:21.507Z,99481.02
2023-03-08T09:24:49.060Z,99482.26
2023-03-08T09:29:18.616Z,99480.39
2023-03-08T09:33:46.494Z,99474.02
2023-03-08T09:38:14.645Z,99462.34
2023-03-08T09:42:45.713Z,99454.90
2023-03-08T09:47:16.070Z,99456.13
2023-03-08T09:51:46.078Z,99453.98
2023-03-08T09:56:20.824Z,99442.69
2023-03-08T10:00:34.891Z,99439.02
2023-03-08T10:04:40.538Z,99433.40
2023-03-08T10:08:46.166Z,99429.04
2023-03-08T10:12:36.928Z,99420.85
2023-03-08T10:16:01.523Z,99415.05
2023-03-08T10:20:11.072Z,99404.40
2023-03-08T10:24:00.774Z,99398.50
2023-03-08T10:27:54.467Z,99397.13
2023-03-08T10:31:43.994Z,99400.08
2023-03-08T10:35:32.639Z,99398.60
2023-03-08T10:39:21.182Z,99398.06
2023-03-08T10:43:16.198Z,99404.58
2023-03-08T10:46:49.679Z,99400.32
2023-03-08T10:50:21.125Z,99400.41
2023-03-08T10:54:07.857Z,99396.11
2023-03-08T10:57:56.150Z,99398.14
2023-03-08T11:01:48.234Z,99397.21
2023-03-08T11:05:37.920Z,99398.38
2023-03-08T11:09:33.203Z,99399.27
2023-03-08T11:13:23.887Z,99394.27
2023-03-08T11:17:04.341Z,99390.11
2023-03-08T11:21:20.474Z,99385.58
2023-03-08T11:26:18.881Z,99383.71
2023-03-08T11:34:46.780Z,99373.27
2023-03-08T11:39:40.282Z,99368.02
2023-03-08T11:43:41.104Z,99370.06
2023-03-08T11:47:58.024Z,99362.92
2023-03-08T11:52:11.273Z,99358.25
2023-03-08T11:56:25.541Z,99360.22
2023-03-08T12:00:20.535Z,99355.05
2023-03-08T12:04:11.137Z,99347.95
2023-03-08T12:08:04.102Z,99334.56
2023-03-08T12:11:58.422Z,99326.92
2023-03-08T12:15:42.246Z,99327.45
2023-03-08T12:19:42.414Z,99318.16
2023-03-08T12:23:35.734Z,99317.96
2023-03-08T12:27:26.027Z,99313.77
2023-03-08T12:31:26.602Z,99302.43
2023-03-08T12:35:31.512Z,99301.85
2023-03-08T12:39:24.252Z,99292.98
2023-03-08T12:43:47.478Z,99293.88
2023-03-08T12:47:53.443Z,99292.58
2023-03-08T12:51:48.698Z,99290.20
2023-03-08T12:55:32.675Z,99278.89
2023-03-08T12:58:38.239Z,99277.52
2023-03-08T13:02:38.921Z,99270.27
2023-03-08T13:06:39.616Z,99266.25
2023-03-08T13:19:56.358Z,99260.20
2023-03-08T13:24:08.823Z,99260.30
2023-03-08T13:28:17.814Z,99255.06
2023-03-08T13:32:10.098Z,99254.87
2023-03-08T13:36:14.736Z,99247.52
2023-03-08T13:40:09.734Z,99246.66
2023-03-08T13:44:00.290Z,99240.27
2023-03-08T13:47:58.449Z,99235.52
2023-03-08T13:51:47.698Z,99234.67
2023-03-08T13:55:46.467Z,99230.36
2023-03-08T13:59:19.481Z,99227.09
2023-03-08T14:02:47.712Z,99229.48
2023-03-08T14:07:07.856Z,99227.73
2023-03-08T14:10:56.096Z,99225.91
2023-03-08T14:14:44.174Z,99225.32
2023-03-08T14:18:31.068Z,99226.36
2023-03-08T14:22:10.107Z,99227.80
2023-03-08T14:26:01.532Z,99234.05
2023-03-08T14:29:59.418Z,99235.06
2023-03-08T14:34:00.421Z,99238.92
2023-03-08T14:37:51.361Z,99233.98
2023-03-08T14:41:31.594Z,99226.95
2023-03-08T14:45:21.270Z,99216.40
2023-03-08T14:49:18.916Z,99216.94
2023-03-08T14:53:07.185Z,99216.39
2023-03-08T14:56:58.088Z,99219.52
2023-03-08T15:00:49.174Z,99214.53
2023-03-08T15:09:03.320Z,99212.23
2023-03-08T15:12:45.387Z,99208.03
2023-03-08T15:16:19.242Z,99203.69
2023-03-08T15:20:00.724Z,99204.13
2023-03-08T15:23:49.098Z,99204.67
2023-03-08T15:26:58.573Z,99193.55
2023-03-08T15:30:47.513Z,99186.61
2023-03-08T15:34:35.251Z,99188.69
2023-03-08T15:38:24.965Z,99180.80
2023-03-08T15:42:12.712Z,99180.19
2023-03-08T15:46:03.791Z,99175.86
2023-03-08T15:49:52.573Z,99170.38
2023-03-08T15:53:34.984Z,99166.31
2023-03-08T15:57:33.999Z,99161.27
2023-03-08T16:01:21.588Z,99160.45
2023-03-08T16:13:42.379Z,99146.44
2023-03-08T16:17:33.440Z,99144.96
2023-03-08T16:21:23.023Z,99146.89
2023-03-08T16:25:12.173Z,99142.48
2023-03-08T16:29:01.705Z,99137.67
2023-03-08T16:32:50.919Z,99138.98
2023-03-08T16:36:39.588Z,99141.08
2023-03-08T16:40:29.827Z,99145.83
2023-03-08T16:44:18.771Z,99151.07
2023-03-08T16:48:07.913Z,99147.95
2023-03-08T16:51:53.465Z,99149.47
2023-03-08T16:55:54.264Z,99148.29
2023-03-08T16:59:43.101Z,99151.52
2023-03-08T17:03:32.796Z,99154.58
2023-03-08T17:07:04.556Z,99147.04
2023-03-08T17:11:32.941Z,99143.73
2023-03-08T17:15:38.304Z,99139.31
2023-03-08T17:20:01.148Z,99138.27
2023-03-08T17:27:40.711Z,99133.73
2023-03-08T17:32:06.439Z,99135.71
2023-03-08T17:36:11.475Z,99136.96
2023-03-08T17:39:35.092Z,99131.73
2023-03-08T17:43:23.947Z,99130.90
2023-03-08T17:47:40.622Z,99130.52
2023-03-08T17:59:59.205Z,99140.38
2023-03-08T18:15:16.602Z,99136.10
2023-03-08T18:19:07.148Z,99134.02
2023-03-08T18:22:57.967Z,99125.09
2023-03-08T18:30:49.623Z,99126.05
2023-03-08T18:34:31.581Z,99127.25
2023-03-08T18:38:17.126Z,99121.50
2023-03-08T18:42:15.373Z,99117.71
2023-03-08T18:46:03.999Z,99115.71
2023-03-08T19:05:28.620Z,99101.02
2023-03-08T19:13:48.605Z,99101.48
2023-03-08T19:17:10.700Z,99095.23
2023-03-08T19:22:05.275Z,99086.44
2023-03-08T19:26:19.910Z,99085.67
2023-03-08T19:30:32.104Z,99085.45
2023-03-08T19:35:24.761Z,99084.38
2023-03-08T19:54:17.059Z,99078.36
2023-03-08T20:13:40.351Z,99076.04
2023-03-08T20:17:57.165Z,99073.90
2023-03-08T20:21:21.126Z,99080.32
2023-03-08T20:25:22.811Z,99077.17
2023-03-08T20:29:54.678Z,99073.89
2023-03-08T20:37:55.262Z,99079.81
2023-03-08T20:41:51.578Z,99079.30
2023-03-08T21:00:41.632Z,99068.80
2023-03-08T21:04:23.068Z,99061.80
2023-03-08T21:08:19.817Z,99049.59
2023-03-08T21:12:44.733Z,99042.35
2023-03-08T21:16:39.436Z,99041.38
2023-03-08T21:23:35.043Z,99039.89
2023-03-08T21:27:23.479Z,99047.83
2023-03-08T21:35:20.670Z,99039.98
2023-03-08T21:39:23.023Z,99044.91
2023-03-08T21:44:03.999Z,99039.88
2023-03-08T21:52:16.530Z,99027.69
2023-03-08T21:56:43.172Z,99027.00
2023-03-08T22:00:41.634Z,99022.27
2023-03-08T22:04:42.570Z,99026.02
2023-03-08T22:09:04.701Z,99024.15
2023-03-08T22:13:08.939Z,99017.93
2023-03-08T22:20:48.520Z,99026.25
2023-03-08T22:28:06.918Z,99021.27
2023-03-08T22:32:19.773Z,99019.15
2023-03-08T22:35:48.535Z,99013.56
2023-03-08T22:40:23.255Z,99015.94
2023-03-08T22:44:50.040Z,99020.78
2023-03-08T22:48:41.651Z,99026.76
2023-03-08T22:53:07.511Z,99027.20
2023-03-08T22:57:36.296Z,99028.22
2023-03-08T23:06:02.563Z,99027.08
2023-03-08T23:10:31.987Z,99019.91
2023-03-08T23:15:23.808Z,99011.05
2023-03-08T23:19:53.819Z,99014.52
2023-03-08T23:23:36.066Z,99010.10
2023-03-08T23:27:42.095Z,99012.02
2023-03-08T23:32:18.782Z,99004.16
2023-03-08T23:36:15.894Z,99009.45
2023-03-08T23:40:08.525Z,99015.63
2023-03-08T23:43:58.794Z,99016.58
2023-03-08T23:48:03.267Z,99015.26
2023-03-08T23:52:21.649Z,99008.71
2023-03-08T23:56:13.680Z,99006.67
